Terminal Aerodrome Forecast
Issued by NWS

Home | Current Version | Previous Version | Text Only | Print | Product List | Glossary Off
Versions: 1 2 3 4 5 6 7 8 9 10 11 12 13 14 15

455
FTUS43 KGRB 161731
TAFCWA
TAF
KCWA 161731Z 1618/1718 18012KT P6SM SCT200
     FM162300 17007KT P6SM SCT200
     FM170500 20006KT P6SM -TSRA BKN080CB
     FM171100 27007KT P6SM -SHRA OVC023
     FM171300 29008KT P6SM BKN100=

USA.gov is the U.S. government's official web portal to all federal, state and local government web resources and services.